createdAt,value
2017-08-17T00:02:11.686Z,12.00
2017-08-17T00:04:40.793Z,14.53
2017-08-17T00:07:09.907Z,12.20
2017-08-17T00:09:38.207Z,12.87
2017-08-17T00:12:06.670Z,13.17
2017-08-17T00:14:35.011Z,11.93
2017-08-17T00:17:04.112Z,11.63
2017-08-17T00:19:32.486Z,14.40
2017-08-17T00:22:00.832Z,12.30
2017-08-17T00:24:29.149Z,13.40
2017-08-17T00:26:57.504Z,14.67
2017-08-17T00:29:25.844Z,15.10
2017-08-17T00:31:54.175Z,13.70
2017-08-17T00:34:23.298Z,14.07
2017-08-17T00:36:51.653Z,14.53
2017-08-17T00:39:20.740Z,14.60
2017-08-17T00:41:49.934Z,13.90
2017-08-17T00:44:19.038Z,15.00
2017-08-17T00:46:47.386Z,14.67
2017-08-17T00:49:15.717Z,15.23
2017-08-17T00:51:44.058Z,14.40
2017-08-17T00:54:12.435Z,15.43
2017-08-17T00:56:41.508Z,17.27
2017-08-17T00:59:09.806Z,16.37
2017-08-17T01:01:38.897Z,18.20
2017-08-17T01:04:08.024Z,17.33
2017-08-17T01:06:36.402Z,18.30
2017-08-17T01:09:04.759Z,17.23
2017-08-17T01:11:33.159Z,18.50
2017-08-17T01:14:01.539Z,19.47
2017-08-17T01:16:29.882Z,19.27
2017-08-17T01:18:58.262Z,19.53
2017-08-17T01:21:27.454Z,21.73
2017-08-17T01:23:56.531Z,21.00
2017-08-17T01:26:24.960Z,21.07
2017-08-17T01:28:53.318Z,22.00
2017-08-17T01:31:21.709Z,22.47
2017-08-17T01:33:50.086Z,21.67
2017-08-17T01:36:18.469Z,24.00
2017-08-17T01:38:47.668Z,23.00
2017-08-17T01:41:15.971Z,21.37
2017-08-17T01:43:44.418Z,20.43
2017-08-17T01:46:13.484Z,22.17
2017-08-17T01:48:42.704Z,22.40
2017-08-17T01:51:11.900Z,23.90
2017-08-17T01:53:40.968Z,22.50
2017-08-17T01:56:09.270Z,23.00
2017-08-17T01:58:38.368Z,23.83
2017-08-17T02:01:07.435Z,24.10
2017-08-17T02:03:35.865Z,22.77
2017-08-17T02:06:04.171Z,23.67
2017-08-17T02:08:32.595Z,23.97
2017-08-17T02:11:01.662Z,26.53
2017-08-17T02:13:30.799Z,27.57
2017-08-17T02:27:13.682Z,27.17
2017-08-17T02:29:42.149Z,25.00
2017-08-17T02:32:11.222Z,23.77
2017-08-17T02:34:40.965Z,25.70
2017-08-17T02:37:09.328Z,27.53
2017-08-17T02:39:38.541Z,28.23
2017-08-17T02:42:07.664Z,27.23
2017-08-17T02:44:35.963Z,27.67
2017-08-17T02:47:04.290Z,27.50
2017-08-17T02:49:32.658Z,28.13
2017-08-17T02:52:00.980Z,31.30
2017-08-17T02:54:29.279Z,29.40
2017-08-17T02:56:57.677Z,30.37
2017-08-17T02:59:26.887Z,29.13
2017-08-17T03:01:55.262Z,31.20
2017-08-17T03:04:23.638Z,29.47
2017-08-17T03:06:52.018Z,29.80
2017-08-17T03:09:20.396Z,28.00
2017-08-17T03:11:49.521Z,27.33
2017-08-17T03:14:17.850Z,30.20
2017-08-17T03:16:47.094Z,27.40
2017-08-17T03:19:15.444Z,27.20
2017-08-17T03:21:44.525Z,29.17
2017-08-17T03:24:12.874Z,29.37
2017-08-17T03:26:41.178Z,27.80
2017-08-17T03:29:09.487Z,28.23
2017-08-17T03:31:37.839Z,28.53
2017-08-17T03:34:06.918Z,24.80
2017-08-17T03:36:36.182Z,27.53
2017-08-17T03:39:04.482Z,30.00
2017-08-17T03:41:32.912Z,29.87
2017-08-17T03:44:01.263Z,27.70
2017-08-17T03:46:30.358Z,31.63
2017-08-17T03:48:58.734Z,30.37
2017-08-17T03:51:27.854Z,29.67
2017-08-17T03:53:56.194Z,31.17
2017-08-17T03:56:24.596Z,29.57
2017-08-17T03:58:52.988Z,30.30
2017-08-17T04:01:21.315Z,31.90
2017-08-17T04:03:49.739Z,33.10
2017-08-17T04:06:18.909Z,30.00
2017-08-17T04:08:47.247Z,32.27
2017-08-17T04:11:15.837Z,30.67
2017-08-17T04:13:44.282Z,33.40
2017-08-17T04:16:12.664Z,32.43
2017-08-17T04:18:41.054Z,31.03
2017-08-17T04:21:09.508Z,31.30
2017-08-17T04:23:37.918Z,32.47
2017-08-17T04:26:12.130Z,31.60
2017-08-17T04:28:40.485Z,29.70
2017-08-17T04:31:08.862Z,29.30
2017-08-17T04:33:37.209Z,30.47
2017-08-17T04:36:06.443Z,29.53
2017-08-17T04:38:34.817Z,29.33
2017-08-17T04:41:04.114Z,27.20
2017-08-17T04:43:33.175Z,29.70
2017-08-17T04:46:01.575Z,28.50
2017-08-17T04:48:30.038Z,27.60
2017-08-17T04:50:58.342Z,28.20
2017-08-17T04:53:27.539Z,31.10
2017-08-17T04:55:55.874Z,27.57
2017-08-17T04:58:41.827Z,31.97
2017-08-17T05:01:10.176Z,31.77
2017-08-17T05:03:38.627Z,29.43
2017-08-17T05:06:06.938Z,29.73
2017-08-17T05:08:35.266Z,25.77
2017-08-17T05:11:04.527Z,27.57
2017-08-17T05:13:32.854Z,29.13
2017-08-17T05:16:01.183Z,29.27
2017-08-17T05:18:29.819Z,26.87
2017-08-17T05:20:58.227Z,26.10
2017-08-17T05:23:27.306Z,28.43
2017-08-17T05:25:56.523Z,26.50
2017-08-17T05:28:25.714Z,26.97
2017-08-17T05:30:54.783Z,33.50
2017-08-17T05:33:23.898Z,31.33
2017-08-17T05:35:52.968Z,29.00
2017-08-17T05:38:21.322Z,28.50
2017-08-17T05:40:49.716Z,30.40
2017-08-17T05:43:18.203Z,25.70
2017-08-17T05:45:47.294Z,25.20
2017-08-17T05:48:15.928Z,25.40
2017-08-17T05:50:44.240Z,23.87
2017-08-17T05:53:12.578Z,24.37
2017-08-17T05:55:40.910Z,27.80
2017-08-17T05:58:09.219Z,25.20
2017-08-17T06:00:44.807Z,21.57
2017-08-17T06:03:15.489Z,25.07
2017-08-17T06:05:43.987Z,24.27
2017-08-17T06:08:12.367Z,23.93
2017-08-17T06:10:40.765Z,23.93
2017-08-17T06:13:09.075Z,22.07
2017-08-17T06:15:37.503Z,23.20
2017-08-17T06:18:05.829Z,24.27
2017-08-17T06:20:34.358Z,22.60
2017-08-17T06:23:03.426Z,25.40
2017-08-17T06:25:32.563Z,23.63
2017-08-17T06:28:00.924Z,25.57
2017-08-17T06:30:30.017Z,22.53
2017-08-17T06:32:59.124Z,24.90
2017-08-17T06:35:27.448Z,28.10
2017-08-17T06:37:55.781Z,28.00
2017-08-17T06:40:24.149Z,27.23
2017-08-17T06:42:53.538Z,25.10
2017-08-17T06:45:22.542Z,26.97
2017-08-17T06:47:50.911Z,28.10
2017-08-17T06:50:19.286Z,30.80
2017-08-17T06:52:47.631Z,29.57
2017-08-17T06:55:16.762Z,26.40
2017-08-17T06:57:45.103Z,27.10
2017-08-17T07:00:13.443Z,28.40
2017-08-17T07:02:41.744Z,27.20
2017-08-17T07:05:10.065Z,27.40
2017-08-17T07:07:38.422Z,27.80
2017-08-17T07:10:07.544Z,31.93
2017-08-17T07:12:36.612Z,33.03
2017-08-17T07:15:04.955Z,29.90
2017-08-17T07:17:33.287Z,29.50
2017-08-17T07:20:02.380Z,30.40
2017-08-17T07:22:30.730Z,32.27
2017-08-17T07:24:59.039Z,33.97
2017-08-17T07:27:28.174Z,32.00
2017-08-17T07:29:56.621Z,29.70
2017-08-17T07:32:25.731Z,34.47
2017-08-17T07:34:54.797Z,31.43
2017-08-17T07:37:23.291Z,28.73
2017-08-17T07:39:51.620Z,30.90
2017-08-17T07:42:19.954Z,32.33
2017-08-17T07:44:48.286Z,31.53
2017-08-17T07:47:16.880Z,32.30
2017-08-17T07:49:45.188Z,29.83
2017-08-17T07:52:13.572Z,30.10
2017-08-17T07:54:41.945Z,30.70
2017-08-17T07:57:10.282Z,28.80
2017-08-17T07:59:38.651Z,29.57
2017-08-17T08:02:06.952Z,26.70
2017-08-17T08:04:35.469Z,27.77
2017-08-17T08:07:03.839Z,30.33
2017-08-17T08:09:32.405Z,28.90
2017-08-17T08:12:00.740Z,25.93
2017-08-17T08:14:29.274Z,28.90
2017-08-17T08:16:57.723Z,28.60
2017-08-17T08:19:26.835Z,27.83
2017-08-17T08:21:55.173Z,27.80
2017-08-17T08:24:25.046Z,25.87
2017-08-17T08:26:54.691Z,25.90
2017-08-17T08:29:24.220Z,23.57
2017-08-17T08:31:54.070Z,25.77
2017-08-17T08:34:23.612Z,23.70
2017-08-17T08:36:53.179Z,24.67
2017-08-17T08:39:22.963Z,24.70
2017-08-17T08:41:52.470Z,22.40
2017-08-17T08:44:22.044Z,24.00
2017-08-17T08:46:51.579Z,24.27
2017-08-17T08:49:21.514Z,22.00
2017-08-17T08:51:51.074Z,26.30
2017-08-17T08:54:20.619Z,26.50
2017-08-17T08:56:50.186Z,29.50
2017-08-17T08:59:20.065Z,26.47
2017-08-17T09:01:49.659Z,25.37
2017-08-17T09:04:19.253Z,21.50
2017-08-17T09:06:48.835Z,24.13
2017-08-17T09:09:18.366Z,22.47
2017-08-17T09:11:48.082Z,21.50
2017-08-17T09:14:17.694Z,21.30
2017-08-17T09:16:47.297Z,19.80
2017-08-17T09:19:16.880Z,21.90
2017-08-17T09:21:46.502Z,19.67
2017-08-17T09:24:16.081Z,22.77
2017-08-17T09:26:45.651Z,19.97
2017-08-17T09:29:15.669Z,18.80
2017-08-17T09:31:45.903Z,19.07
2017-08-17T09:34:15.780Z,19.20
2017-08-17T09:36:45.360Z,20.17
2017-08-17T09:39:15.335Z,16.70
2017-08-17T09:41:44.858Z,17.90
2017-08-17T09:44:14.504Z,18.50
2017-08-17T09:46:44.068Z,17.07
2017-08-17T09:49:13.718Z,17.83
2017-08-17T09:51:43.346Z,14.63
2017-08-17T09:54:12.103Z,13.27
2017-08-17T09:56:41.205Z,17.30
2017-08-17T09:59:09.576Z,13.10
2017-08-17T10:01:38.484Z,12.23
2017-08-17T10:04:06.844Z,12.53
2017-08-17T10:06:35.935Z,11.80
2017-08-17T10:09:05.162Z,16.70
2017-08-17T10:11:33.498Z,10.60
2017-08-17T10:14:01.891Z,14.67
2017-08-17T10:16:30.226Z,17.13
2017-08-17T10:18:58.687Z,16.20
2017-08-17T10:21:27.019Z,14.10
2017-08-17T10:23:56.131Z,16.30
2017-08-17T10:26:24.507Z,17.77
2017-08-17T10:28:52.974Z,11.70
2017-08-17T10:31:21.339Z,14.10
2017-08-17T10:33:49.709Z,16.83
2017-08-17T10:36:18.942Z,13.80
2017-08-17T10:38:47.419Z,12.77
2017-08-17T10:41:15.895Z,9.97
2017-08-17T10:43:44.305Z,17.00
2017-08-17T10:46:12.635Z,17.20
2017-08-17T10:48:41.044Z,12.40
2017-08-17T10:51:09.379Z,9.97
2017-08-17T10:53:38.506Z,10.23
2017-08-17T10:56:07.897Z,12.90
2017-08-17T10:58:37.236Z,11.57
2017-08-17T11:01:05.531Z,13.60
2017-08-17T11:03:33.873Z,11.40
2017-08-17T11:06:02.264Z,9.87
2017-08-17T11:08:30.578Z,11.10
2017-08-17T11:10:58.938Z,8.93
2017-08-17T11:13:27.231Z,9.57
2017-08-17T11:15:55.557Z,10.13
2017-08-17T11:18:23.860Z,12.20
2017-08-17T11:20:52.223Z,11.53
2017-08-17T11:23:20.567Z,10.87
2017-08-17T11:25:49.182Z,11.30
2017-08-17T11:28:17.493Z,11.57
2017-08-17T11:30:45.923Z,12.00
2017-08-17T11:33:14.807Z,10.40
2017-08-17T11:35:43.184Z,8.50
2017-08-17T11:38:11.504Z,10.30
2017-08-17T11:40:39.836Z,9.60
2017-08-17T11:43:08.918Z,9.53
2017-08-17T11:45:37.987Z,8.23
2017-08-17T11:48:07.108Z,9.23
2017-08-17T11:50:36.211Z,9.27
2017-08-17T11:53:05.282Z,9.23
2017-08-17T11:55:33.601Z,8.97
2017-08-17T11:58:03.079Z,10.43
2017-08-17T12:00:31.579Z,8.03
2017-08-17T12:03:00.642Z,8.37
2017-08-17T12:05:28.939Z,8.00
2017-08-17T12:07:57.292Z,8.87
2017-08-17T12:10:26.404Z,7.70
2017-08-17T12:12:54.719Z,7.90
2017-08-17T12:15:23.076Z,9.90
2017-08-17T12:17:52.171Z,9.80
2017-08-17T12:20:20.531Z,12.83
2017-08-17T12:22:49.660Z,10.77
2017-08-17T12:25:18.118Z,10.53
2017-08-17T12:27:47.418Z,9.60
2017-08-17T12:30:16.487Z,8.90
2017-08-17T12:32:44.780Z,9.40
2017-08-17T12:35:13.156Z,9.63
2017-08-17T12:37:42.236Z,10.00
2017-08-17T12:40:10.620Z,7.80
2017-08-17T12:42:38.926Z,9.57
2017-08-17T12:45:07.292Z,9.40
2017-08-17T12:47:35.620Z,8.37
2017-08-17T12:50:04.148Z,9.20
2017-08-17T12:52:33.254Z,8.27
2017-08-17T12:55:01.585Z,8.87
2017-08-17T12:57:29.899Z,8.80
2017-08-17T12:59:58.986Z,10.57
2017-08-17T13:02:28.089Z,9.20
2017-08-17T13:04:56.471Z,17.93
2017-08-17T13:07:24.813Z,14.10
2017-08-17T13:09:54.017Z,11.00
2017-08-17T13:12:22.328Z,13.40
2017-08-17T13:14:50.654Z,11.00
2017-08-17T13:17:18.972Z,12.00
2017-08-17T13:19:48.171Z,10.60
2017-08-17T13:22:16.548Z,8.33
2017-08-17T13:24:44.932Z,8.50
2017-08-17T13:27:13.222Z,10.83
2017-08-17T13:29:41.543Z,8.97
2017-08-17T13:32:09.914Z,8.43
2017-08-17T13:34:38.745Z,9.00
2017-08-17T13:37:07.807Z,10.20
2017-08-17T13:39:37.216Z,8.70
2017-08-17T13:42:05.517Z,9.07
2017-08-17T13:44:34.587Z,8.23
2017-08-17T13:47:02.894Z,7.83
2017-08-17T13:49:31.369Z,9.33
2017-08-17T13:52:00.633Z,8.33
2017-08-17T13:54:30.396Z,10.30
2017-08-17T13:56:58.767Z,8.37
2017-08-17T13:59:27.078Z,10.60
2017-08-17T14:01:55.711Z,9.73
2017-08-17T14:04:24.093Z,8.43
2017-08-17T14:06:53.202Z,10.07
2017-08-17T14:09:21.491Z,11.33
2017-08-17T14:11:49.982Z,12.67
2017-08-17T14:14:18.330Z,8.50
2017-08-17T14:16:46.794Z,10.33
2017-08-17T14:19:15.880Z,10.93
2017-08-17T14:21:44.954Z,10.20
2017-08-17T14:24:13.273Z,10.70
2017-08-17T14:26:42.342Z,8.37
2017-08-17T14:29:10.759Z,7.73
2017-08-17T14:31:39.101Z,8.87
2017-08-17T14:34:08.230Z,8.20
2017-08-17T14:36:37.162Z,9.13
2017-08-17T14:39:05.532Z,10.47
2017-08-17T14:41:33.865Z,8.77
2017-08-17T14:44:02.344Z,10.10
2017-08-17T14:46:30.678Z,8.77
2017-08-17T14:48:58.997Z,9.90
2017-08-17T14:51:27.407Z,7.97
2017-08-17T14:53:55.856Z,10.40
2017-08-17T14:56:24.231Z,8.00
2017-08-17T14:58:52.610Z,11.67
2017-08-17T15:01:20.964Z,11.77
2017-08-17T15:03:49.299Z,9.50
2017-08-17T15:06:17.735Z,9.50
2017-08-17T15:08:46.121Z,10.07
2017-08-17T15:11:14.455Z,9.70
2017-08-17T15:13:42.739Z,10.80
2017-08-17T15:16:11.326Z,10.00
2017-08-17T15:18:39.648Z,11.10
2017-08-17T15:21:07.951Z,13.70
2017-08-17T15:23:36.324Z,15.27
2017-08-17T15:26:04.627Z,10.10
2017-08-17T15:28:33.038Z,10.47
2017-08-17T15:31:02.123Z,10.53
2017-08-17T15:33:30.470Z,11.20
2017-08-17T15:35:58.758Z,8.83
2017-08-17T15:38:28.025Z,10.57
2017-08-17T15:40:56.356Z,8.77
2017-08-17T15:43:24.642Z,9.33
2017-08-17T15:45:53.741Z,9.33
2017-08-17T15:48:22.083Z,11.63
2017-08-17T15:50:51.208Z,11.23
2017-08-17T15:53:19.526Z,10.80
2017-08-17T15:55:47.970Z,9.57
2017-08-17T15:58:17.944Z,8.10
2017-08-17T16:00:46.275Z,7.80
2017-08-17T16:03:14.635Z,10.63
2017-08-17T16:05:43.989Z,10.10
2017-08-17T16:08:15.263Z,9.07
2017-08-17T16:10:43.723Z,10.60
2017-08-17T16:13:12.035Z,8.60
2017-08-17T16:15:41.123Z,9.67
2017-08-17T16:18:10.243Z,9.83
2017-08-17T16:20:38.560Z,12.37
2017-08-17T16:23:06.929Z,8.60
2017-08-17T16:25:35.239Z,7.30
2017-08-17T16:28:03.582Z,11.20
2017-08-17T16:30:31.886Z,9.53
2017-08-17T16:33:00.236Z,8.50
2017-08-17T16:35:28.562Z,6.57
2017-08-17T16:37:56.918Z,8.47
2017-08-17T16:40:25.234Z,8.93
2017-08-17T16:42:53.627Z,10.10
2017-08-17T16:45:21.988Z,8.57
2017-08-17T16:47:50.488Z,10.07
2017-08-17T16:50:18.809Z,8.43
2017-08-17T16:52:47.915Z,9.30
2017-08-17T16:55:16.292Z,10.80
2017-08-17T16:57:45.388Z,10.47
2017-08-17T17:00:13.747Z,12.67
2017-08-17T17:02:42.069Z,10.77
2017-08-17T17:05:10.439Z,12.97
2017-08-17T17:07:38.895Z,9.83
2017-08-17T17:10:07.283Z,11.53
2017-08-17T17:12:35.648Z,11.17
2017-08-17T17:15:04.033Z,11.33
2017-08-17T17:17:33.112Z,11.17
2017-08-17T17:20:02.455Z,12.77
2017-08-17T17:22:30.767Z,10.83
2017-08-17T17:24:59.182Z,12.40
2017-08-17T17:27:28.344Z,14.43
2017-08-17T17:29:56.651Z,12.43
2017-08-17T17:32:25.781Z,14.70
2017-08-17T17:34:54.183Z,11.33
2017-08-17T17:37:22.516Z,12.70
2017-08-17T17:39:51.629Z,12.73
2017-08-17T17:42:19.960Z,12.20
2017-08-17T17:44:49.062Z,13.00
2017-08-17T17:47:17.411Z,14.13
2017-08-17T17:49:45.753Z,11.70
2017-08-17T17:52:14.248Z,11.80
2017-08-17T17:54:42.606Z,11.30
2017-08-17T17:57:10.955Z,11.17
2017-08-17T17:59:39.334Z,10.60
2017-08-17T18:02:07.682Z,12.50
2017-08-17T18:04:36.114Z,12.03
2017-08-17T18:07:04.658Z,12.40
2017-08-17T18:09:33.179Z,11.10
2017-08-17T18:12:01.490Z,12.93
2017-08-17T18:14:29.839Z,11.50
2017-08-17T18:16:58.183Z,14.23
2017-08-17T18:19:26.541Z,11.43
2017-08-17T18:21:54.893Z,13.30
2017-08-17T18:24:23.211Z,12.83
2017-08-17T18:26:51.955Z,13.60
2017-08-17T18:29:20.262Z,14.10
2017-08-17T18:31:48.679Z,14.33
2017-08-17T18:34:17.792Z,17.17
2017-08-17T18:36:46.162Z,14.63
2017-08-17T18:39:15.345Z,14.60
2017-08-17T18:41:43.650Z,14.17
2017-08-17T18:44:12.339Z,18.53
2017-08-17T18:46:40.756Z,17.47
2017-08-17T18:49:09.924Z,14.07
2017-08-17T18:51:38.251Z,17.77
2017-08-17T18:54:06.670Z,16.13
2017-08-17T18:56:35.031Z,14.13
2017-08-17T18:59:04.131Z,13.27
2017-08-17T19:01:32.463Z,14.33
2017-08-17T19:04:00.919Z,13.47
2017-08-17T19:06:29.355Z,13.10
2017-08-17T19:08:58.479Z,14.50
2017-08-17T19:11:26.833Z,15.67
2017-08-17T19:13:55.153Z,22.00
2017-08-17T19:16:23.491Z,16.90
2017-08-17T19:18:52.100Z,15.50
2017-08-17T19:21:20.419Z,14.33
2017-08-17T19:23:49.977Z,16.30
2017-08-17T19:26:18.299Z,13.30
2017-08-17T19:28:46.703Z,16.90
2017-08-17T19:31:15.021Z,13.87
2017-08-17T19:33:43.459Z,14.10
2017-08-17T19:36:11.798Z,17.90
2017-08-17T19:38:40.119Z,14.10
2017-08-17T19:41:09.231Z,35.73
2017-08-17T19:43:37.574Z,15.97
2017-08-17T19:46:05.986Z,22.67
2017-08-17T19:48:34.780Z,43.43
2017-08-17T19:51:03.104Z,28.00
2017-08-17T19:53:31.396Z,36.40
2017-08-17T19:56:00.495Z,31.30
2017-08-17T19:58:29.697Z,16.00
2017-08-17T20:00:58.051Z,18.33
2017-08-17T20:03:26.383Z,17.93
2017-08-17T20:05:54.818Z,18.90
2017-08-17T20:08:23.919Z,13.40
2017-08-17T20:10:53.032Z,13.13
2017-08-17T20:13:21.400Z,12.70
2017-08-17T20:15:50.507Z,18.80
2017-08-17T20:18:19.208Z,13.57
2017-08-17T20:20:48.184Z,14.80
2017-08-17T20:23:16.536Z,13.87
2017-08-17T20:25:44.959Z,12.37
2017-08-17T20:28:13.358Z,16.80
2017-08-17T20:30:42.836Z,13.80
2017-08-17T20:33:11.401Z,13.50
2017-08-17T20:35:40.416Z,16.53
2017-08-17T20:38:08.872Z,13.40
2017-08-17T20:40:37.949Z,18.47
2017-08-17T20:43:06.296Z,12.00
2017-08-17T20:45:34.703Z,12.33
2017-08-17T20:48:03.301Z,12.20
2017-08-17T20:50:32.374Z,14.53
2017-08-17T20:53:00.671Z,12.20
2017-08-17T20:55:29.055Z,13.17
2017-08-17T20:57:58.140Z,15.47
2017-08-17T21:00:26.536Z,13.07
2017-08-17T21:02:54.863Z,17.67
2017-08-17T21:05:23.378Z,15.70
2017-08-17T21:07:52.476Z,19.00
2017-08-17T21:10:21.567Z,16.73
2017-08-17T21:12:50.796Z,15.17
2017-08-17T21:15:19.142Z,14.23
2017-08-17T21:17:47.486Z,13.23
2017-08-17T21:20:17.342Z,12.93
2017-08-17T21:22:45.825Z,15.07
2017-08-17T21:25:14.149Z,14.03
2017-08-17T21:27:42.778Z,17.00
2017-08-17T21:30:11.115Z,17.10
2017-08-17T21:32:39.424Z,13.87
2017-08-17T21:35:08.523Z,16.77
2017-08-17T21:37:37.609Z,12.13
2017-08-17T21:40:05.985Z,10.10
2017-08-17T21:42:34.336Z,10.33
2017-08-17T21:45:02.739Z,11.60
2017-08-17T21:47:31.047Z,12.27
2017-08-17T21:49:59.423Z,12.30
2017-08-17T21:52:27.736Z,10.60
2017-08-17T21:54:56.264Z,12.33
2017-08-17T21:57:25.318Z,16.30
2017-08-17T21:59:53.630Z,12.20
2017-08-17T22:02:22.722Z,17.60
2017-08-17T22:04:51.804Z,16.07
2017-08-17T22:07:20.917Z,14.40
2017-08-17T22:09:49.246Z,15.80
2017-08-17T22:12:17.693Z,14.00
2017-08-17T22:14:46.068Z,16.00
2017-08-17T22:17:14.526Z,12.73
2017-08-17T22:19:43.614Z,15.80
2017-08-17T22:22:11.998Z,14.70
2017-08-17T22:24:40.384Z,11.57
2017-08-17T22:27:08.682Z,11.17
2017-08-17T22:29:37.043Z,10.10
2017-08-17T22:32:05.358Z,10.83
2017-08-17T22:34:33.689Z,10.10
2017-08-17T22:37:02.768Z,13.53
2017-08-17T22:39:31.890Z,14.20
2017-08-17T22:42:00.194Z,14.50
2017-08-17T22:44:28.647Z,13.27
2017-08-17T22:46:57.019Z,13.90
2017-08-17T22:49:25.502Z,14.63
2017-08-17T22:51:53.815Z,13.90
2017-08-17T22:54:22.117Z,12.00
2017-08-17T22:56:50.526Z,11.77
2017-08-17T22:59:18.834Z,13.87
2017-08-17T23:01:47.195Z,11.57
2017-08-17T23:04:15.526Z,11.20
2017-08-17T23:06:45.555Z,12.80
2017-08-17T23:09:14.679Z,15.43
2017-08-17T23:11:43.775Z,14.67
2017-08-17T23:14:12.163Z,15.00
2017-08-17T23:16:40.719Z,8.23
2017-08-17T23:19:09.827Z,10.60
2017-08-17T23:21:38.708Z,12.07
2017-08-17T23:24:07.811Z,11.77
2017-08-17T23:26:36.137Z,10.90
2017-08-17T23:29:04.562Z,11.30
2017-08-17T23:31:32.939Z,11.60
2017-08-17T23:34:01.291Z,11.73
2017-08-17T23:36:29.619Z,11.50
2017-08-17T23:38:57.961Z,13.03
2017-08-17T23:41:27.799Z,13.37
2017-08-17T23:43:56.266Z,19.90
2017-08-17T23:46:24.579Z,14.67
2017-08-17T23:48:53.015Z,11.93
2017-08-17T23:51:21.390Z,12.70
2017-08-17T23:53:49.719Z,12.80
2017-08-17T23:56:18.043Z,10.47
2017-08-17T23:58:47.153Z,13.10
